Have a Safe July 4th! 

Flight Track Log - Related Links

Times and Time Zones

All times are in EDT time to prevent confusion due to time zone crossing. See the GJS3618 flight status page for this flight to view local times or setup timezone preferences in your user account.

Time Position Orientation Groundspeed Altitude Reporting Facility
EDT Latitude Longitude Course Direction KTS MPH feet Rate Location/Type
Thu 10:31:02 PM 39.8778 -104.5969 79° East 179 206 6,900  Level Denver Center
Thu 10:32:04 PM 39.8906 -104.5258 77° East 203 234 9,300 1,306 Climbing Denver Center
Thu 10:33:06 PM 39.8964 -104.4256 86° East 264 304 9,600 1,355 Climbing Denver Center
Thu 10:34:08 PM 39.8981 -104.3264 89° East 275 316 12,100 2,537 Climbing Denver Center
Thu 10:35:09 PM 39.9083 -104.2228 83° East 274 315 14,800 2,195 Climbing Denver Center
Thu 10:36:00 PM 39.9834 -103.9326 79° East  Level FlightAware Approximate
Thu 10:36:11 PM 39.9328 -104.1242 72° East 286 329 16,600  Level Denver Center
Thu 10:37:13 PM 39.9603 -104.0150 72° East 319 367 17,700 1,065 Climbing Denver Center
Thu 10:38:15 PM 39.9928 -103.8808 72° East 362 417 18,800 1,024 Climbing Denver Center
Thu 10:39:16 PM 40.0242 -103.7461 73° East 388 447 19,800 1,024 Climbing Denver Center
Thu 10:40:18 PM 40.0494 -103.5917 78° East 397 457 20,900 1,016 Climbing Denver Center
Thu 10:41:20 PM 40.0731 -103.4456 78° East 422 486 21,900 919 Climbing Denver Center
Thu 10:42:22 PM 40.0972 -103.3000 78° East 428 493 22,800 1,024 Climbing Denver Center
Thu 10:43:23 PM 40.1256 -103.1247 78° East 438 504 24,000 1,024 Climbing Denver Center
Thu 10:44:25 PM 40.1489 -102.9747 78° East 441 507 24,900 976 Climbing Denver Center
Thu 10:45:26 PM 40.1767 -102.7967 78° East 446 513 26,000 1,024 Climbing Denver Center
Thu 10:46:28 PM 40.2014 -102.6458 78° East 446 513 27,000 1,016 Climbing Denver Center
Thu 10:47:30 PM 40.2283 -102.4669 79° East 448 516 28,100 1,024 Climbing Denver Center
Thu 10:48:31 PM 40.2519 -102.3147 78° East 447 514 29,100 976 Climbing Denver Center
Thu 10:49:33 PM 40.2744 -102.1619 79° East 446 513 30,100 1,016 Climbing Denver Center
Thu 10:50:35 PM 40.3094 -101.9858 75° East 448 516 31,200 878 Climbing Denver Center
Thu 10:51:36 PM 40.3433 -101.8375 73° East 446 513 31,900 683 Climbing Denver Center
Thu 10:52:38 PM 40.3850 -101.6608 73° East 456 525 32,600 634 Climbing Denver Center
Thu 10:53:39 PM 40.4183 -101.5075 74° East 458 527 33,200 634 Climbing Denver Center
Thu 10:54:41 PM 40.4594 -101.3292 73° East 459 528 33,900 629 Climbing Denver Center
Thu 10:55:43 PM 40.4933 -101.1739 74° East 463 533 34,500 532 Climbing Denver Center
Thu 10:56:45 PM 40.5328 -100.9947 74° East 462 532 35,000 293 Climbing Denver Center
Thu 10:57:46 PM 40.5672 -100.8389 74° East 466 536 35,100 341 Climbing Denver Center
Thu 10:58:48 PM 40.6058 -100.6569 74° East 468 539 35,700 532 Climbing Denver Center
Thu 10:59:50 PM 40.6403 -100.5028 74° East 465 535 36,200 488 Climbing Denver Center
Thu 11:00:51 PM 40.6728 -100.3481 74° East 463 533 36,700 488 Climbing Denver Center
Thu 11:01:53 PM 40.7114 -100.1686 74° East 460 529 37,200 488 Climbing Denver Center
Thu 11:02:54 PM 40.7442 -100.0119 75° East 463 533 37,700 541 Climbing Denver Center
Thu 11:03:55 PM 40.7811 -99.8300 75° East 462 532 38,300 488 Climbing Denver Center
Thu 11:04:57 PM 40.8106 -99.6914 74° East 454 522 38,700 341 Climbing Denver Center
Thu 11:05:58 PM 40.8506 -99.4994 75° East 453 521 39,000 146 Climbing Denver Center
Thu 11:07:00 PM 40.8833 -99.3372 75° East 455 524 39,000  Level Denver Center
Thu 11:08:01 PM 40.9169 -99.1725 75° East 462 532 39,000  Level Denver Center
Thu 11:08:29 PM 40.9328 -99.0919 75° East 465 535 39,000  Level Minneapolis Center
Thu 11:09:31 PM 40.9658 -98.9247 75° East 468 539 39,000  Level Minneapolis Center
Thu 11:10:32 PM 40.9981 -98.7561 76° East 473 544 39,000  Level Minneapolis Center
Thu 11:11:34 PM 41.0331 -98.5872 75° East 475 547 39,000  Level Minneapolis Center
Thu 11:12:35 PM 41.0669 -98.4111 76° East 473 544 39,000  Level Minneapolis Center
Thu 11:13:37 PM 41.0994 -98.2419 76° East 474 545 39,000  Level Minneapolis Center
Thu 11:14:38 PM 41.1322 -98.0736 75° East 473 544 39,000  Level Minneapolis Center
Thu 11:15:40 PM 41.1644 -97.9036 76° East 475 547 39,000  Level Minneapolis Center
Thu 11:16:41 PM 41.1961 -97.7347 76° East 473 544 39,000  Level Minneapolis Center
Thu 11:17:43 PM 41.2339 -97.5314 76° East 472 543 39,000  Level Minneapolis Center
Thu 11:18:44 PM 41.2639 -97.3678 76° East 473 544 39,000  Level Minneapolis Center
Thu 11:19:46 PM 41.2947 -97.1978 76° East 473 544 39,000  Level Minneapolis Center
Thu 11:20:47 PM 41.3264 -97.0272 76° East 474 545 39,000  Level Minneapolis Center
Thu 11:21:48 PM 41.3572 -96.8567 76° East 473 544 39,000  Level Minneapolis Center
Thu 11:22:50 PM 41.3878 -96.6858 77° East 473 544 39,000  Level Minneapolis Center
Thu 11:23:51 PM 41.4183 -96.5161 76° East 470 541 39,000  Level Minneapolis Center
Thu 11:24:53 PM 41.4492 -96.3400 77° East 471 542 39,000  Level Minneapolis Center
Thu 11:25:54 PM 41.4775 -96.1683 78° East 474 545 39,000  Level Minneapolis Center
Thu 11:26:55 PM 41.5131 -95.9633 77° East 472 543 39,000  Level Minneapolis Center
Thu 11:27:57 PM 41.5419 -95.7925 77° East 471 542 39,000  Level Minneapolis Center
Thu 11:28:58 PM 41.5717 -95.6139 77° East 473 544 39,000  Level Minneapolis Center
Thu 11:30:00 PM 41.6014 -95.4411 77° East 475 547 39,000  Level Minneapolis Center
Thu 11:31:01 PM 41.6297 -95.2672 78° East 478 550 39,000  Level Minneapolis Center
Thu 11:32:02 PM 41.6572 -95.0919 78° East 482 555 39,000  Level Minneapolis Center
Thu 11:33:04 PM 41.6856 -94.9181 78° East 479 551 39,000  Level Minneapolis Center
Thu 11:34:05 PM 41.7128 -94.7431 78° East 481 554 39,000  Level Minneapolis Center
Thu 11:35:06 PM 41.7408 -94.5686 78° East 481 554 39,000  Level Minneapolis Center
Thu 11:36:08 PM 41.7672 -94.3928 79° East 482 555 39,000  Level Minneapolis Center
Thu 11:37:09 PM 41.7956 -94.2178 78° East 481 554 39,000  Level Minneapolis Center
Thu 11:38:10 PM 41.8228 -94.0414 78° East 483 556 39,000  Level Minneapolis Center
Thu 11:39:12 PM 41.8528 -93.8461 78° East 485 558 39,000  Level Minneapolis Center
Thu 11:40:13 PM 41.8792 -93.6703 79° East 484 557 39,000  Level Minneapolis Center
Thu 11:41:15 PM 41.9058 -93.4933 78° East 486 559 39,000  Level Minneapolis Center
Thu 11:42:16 PM 41.9303 -93.3161 79° East 486 559 39,000  Level Minneapolis Center
Thu 11:43:17 PM 41.9597 -93.1172 79° East 486 559 39,000  Level Minneapolis Center
Thu 11:44:19 PM 41.9844 -92.9397 79° East 488 562 39,000  Level Minneapolis Center
Thu 11:45:20 PM 42.0100 -92.7619 79° East 489 563 39,000  Level Minneapolis Center
Thu 11:46:17 PM 42.0353 -92.5808 79° East 494 568 39,000  Level Chicago Center
Thu 11:47:18 PM 42.0594 -92.4000 80° East 496 571 39,000  Level Chicago Center
Thu 11:48:19 PM 42.0842 -92.2208 79° East 495 570 39,000  Level Chicago Center
Thu 11:49:20 PM 42.1089 -92.0397 80° East 497 572 39,000  Level Chicago Center
Thu 11:50:21 PM 42.1328 -91.8572 80° East 500 575 39,000  Level Chicago Center
Thu 11:51:22 PM 42.1614 -91.6369 80° East 505 581 39,000  Level Chicago Center
Thu 11:52:23 PM 42.1853 -91.4561 80° East 501 577 39,000  Level Chicago Center
Thu 11:53:24 PM 42.2086 -91.2731 80° East 503 579 39,000  Level Chicago Center
Thu 11:54:25 PM 42.2317 -91.0894 80° East 505 581 39,000  Level Chicago Center
Thu 11:55:26 PM 42.2536 -90.9075 81° East 500 575 39,000  Level Chicago Center
Thu 11:56:26 PM 42.2753 -90.7233 81° East 503 579 39,000  Level Chicago Center
Thu 11:57:27 PM 42.2989 -90.5386 80° East 506 582 39,000  Level Chicago Center
Thu 11:58:28 PM 42.3247 -90.3164 81° East 503 579 39,000  Level Chicago Center
Thu 11:59:29 PM 42.3456 -90.1294 81° East 507 583 39,000  Level Chicago Center
Fri 12:00:30 AM 42.3664 -89.9422 81° East 509 586 39,000  Level Chicago Center
Fri 12:01:30 AM 42.3883 -89.7597 81° East 507 583 39,000  Level Chicago Center
Fri 12:02:31 AM 42.4089 -89.5706 82° East 508 585 39,000  Level Chicago Center
Fri 12:03:32 AM 42.4311 -89.3831 81° East 507 583 39,000  Level Chicago Center
Fri 12:04:32 AM 42.4511 -89.1947 82° East 506 582 39,000  Level Chicago Center
Fri 12:05:33 AM 42.4706 -89.0053 82° East 507 583 39,000  Level Chicago Center
Fri 12:06:34 AM 42.4900 -88.8181 82° East 504 580 39,000  Level Chicago Center
Fri 12:07:35 AM 42.5128 -88.6008 82° East 501 577 39,000  Level Chicago Center
Fri 12:08:35 AM 42.5317 -88.4156 82° East 497 572 39,000 -149 Level Chicago Center
Fri 12:09:36 AM 42.5494 -88.2322 82° East 493 567 38,700 -738 Descending Chicago Center
Fri 12:10:37 AM 42.5681 -88.0511 82° East 489 563 37,500 -1,537 Descending Chicago Center
Fri 12:11:37 AM 42.5858 -87.8656 83° East 495 570 35,600 -1,884 Descending Chicago Center
Fri 12:12:38 AM 42.6028 -87.6792 83° East 498 573 33,700 -1,869 Descending Chicago Center
Fri 12:13:39 AM 42.6197 -87.4925 83° East 498 573 31,800 -1,934 Descending Chicago Center
Fri 12:14:39 AM 42.6375 -87.3031 83° East 492 566 29,800 -1,983 Descending Chicago Center
Fri 12:15:40 AM 42.6531 -87.1222 83° East 484 557 27,800 -1,934 Descending Chicago Center
Fri 12:16:40 AM 42.6694 -86.9494 83° East 468 539 25,900 -2,083 Descending Chicago Center
Fri 12:17:41 AM 42.6872 -86.7806 82° East 457 526 23,600 -2,262 Descending Chicago Center
Fri 12:18:42 AM 42.7250 -86.6192 72° East 449 517 21,300 -2,281 Descending Chicago Center
Fri 12:19:42 AM 42.7603 -86.4611 73° East 442 509 19,000 -2,281 Descending Chicago Center
Fri 12:20:43 AM 42.7531 -86.3097 94° East 414 476 16,700 -2,361 Descending Chicago Center
Fri 12:21:44 AM 42.7239 -86.1658 105° East 404 465 14,200 -2,380 Descending Chicago Center
Fri 12:22:44 AM 42.6981 -86.0297 104° East 388 447 11,900 -1,736 Descending Chicago Center
Fri 12:23:45 AM 42.6764 -85.9147 104° East 334 384 10,700 -1,587 Descending Chicago Center
Fri 12:24:45 AM 42.6586 -85.8114 103° East 289 333 8,700 -2,033 Descending Chicago Center
Fri 12:25:46 AM 42.6433 -85.7139 102° East 274 315 6,600 -2,115 Descending Chicago Center
Fri 12:26:47 AM 42.6617 -85.5978 78° East 265 305 4,400 -1,785 Descending Chicago Center
Fri 12:27:47 AM 42.6794 -85.5117 74° East 253 291 3,000 -694 Descending Chicago Center
Fri 12:28:48 AM 42.7342 -85.4922 15° North 214 246 3,000 -248 Level Chicago Center
Fri 12:29:48 AM 42.7850 -85.4964 357° North 188 216 2,500 -645 Descending Chicago Center
Fri 12:30:49 AM 42.8283 -85.5056 351° North 173 199 1,700 -793 Descending Chicago Center
Fri 12:31:49 AM 42.8639 -85.5128 352° North 150 173 900 -446 Descending Chicago Center
Fri 12:32:50 AM 42.9000 -85.5192 353° North 147 169 800 -98 Descending Chicago Center

Login

Don't have an account? Register now (free) for customized features, flight alerts, and more!